sensor_id;sensor_type;location;lat;lon;timestamp;temperature;humidity
69084;SHT31;56185;48.526;9.044;2022-11-09T00:02:07;8.78;85.59
69084;SHT31;56185;48.526;9.044;2022-11-09T00:04:32;8.82;85.75
69084;SHT31;56185;48.526;9.044;2022-11-09T00:06:58;8.84;85.67
69084;SHT31;56185;48.526;9.044;2022-11-09T00:09:23;8.84;85.71
69084;SHT31;56185;48.526;9.044;2022-11-09T00:11:48;8.87;85.47
69084;SHT31;56185;48.526;9.044;2022-11-09T00:14:15;8.87;85.51
69084;SHT31;56185;48.526;9.044;2022-11-09T00:16:40;8.81;85.87
69084;SHT31;56185;48.526;9.044;2022-11-09T00:19:05;8.74;85.94
69084;SHT31;56185;48.526;9.044;2022-11-09T00:21:31;8.78;85.76
69084;SHT31;56185;48.526;9.044;2022-11-09T00:23:56;8.87;85.48
69084;SHT31;56185;48.526;9.044;2022-11-09T00:26:21;8.84;85.41
69084;SHT31;56185;48.526;9.044;2022-11-09T00:28:47;8.81;85.73
69084;SHT31;56185;48.526;9.044;2022-11-09T00:31:16;8.85;85.33
69084;SHT31;56185;48.526;9.044;2022-11-09T00:33:42;8.82;85.41
69084;SHT31;56185;48.526;9.044;2022-11-09T00:36:10;8.82;85.72
69084;SHT31;56185;48.526;9.044;2022-11-09T00:38:36;8.81;85.68
69084;SHT31;56185;48.526;9.044;2022-11-09T00:41:03;8.80;85.73
69084;SHT31;56185;48.526;9.044;2022-11-09T00:43:28;8.81;85.91
69084;SHT31;56185;48.526;9.044;2022-11-09T00:45:53;8.85;85.86
69084;SHT31;56185;48.526;9.044;2022-11-09T00:48:19;8.84;85.76
69084;SHT31;56185;48.526;9.044;2022-11-09T00:50:51;8.88;85.61
69084;SHT31;56185;48.526;9.044;2022-11-09T00:53:17;8.88;85.51
69084;SHT31;56185;48.526;9.044;2022-11-09T00:55:55;8.95;85.38
69084;SHT31;56185;48.526;9.044;2022-11-09T00:58:21;8.95;85.32
69084;SHT31;56185;48.526;9.044;2022-11-09T01:00:46;8.89;85.46
69084;SHT31;56185;48.526;9.044;2022-11-09T01:03:12;8.94;85.34
69084;SHT31;56185;48.526;9.044;2022-11-09T01:05:37;8.94;85.52
69084;SHT31;56185;48.526;9.044;2022-11-09T01:08:03;8.94;85.34
69084;SHT31;56185;48.526;9.044;2022-11-09T01:10:28;8.91;85.37
69084;SHT31;56185;48.526;9.044;2022-11-09T01:12:53;8.98;85.23
69084;SHT31;56185;48.526;9.044;2022-11-09T01:15:18;8.94;85.33
69084;SHT31;56185;48.526;9.044;2022-11-09T01:17:44;8.92;85.44
69084;SHT31;56185;48.526;9.044;2022-11-09T01:20:10;8.89;85.62
69084;SHT31;56185;48.526;9.044;2022-11-09T01:22:35;9.00;85.54
69084;SHT31;56185;48.526;9.044;2022-11-09T01:25:00;8.91;85.72
69084;SHT31;56185;48.526;9.044;2022-11-09T01:27:25;8.92;85.67
69084;SHT31;56185;48.526;9.044;2022-11-09T01:29:51;8.91;85.59
69084;SHT31;56185;48.526;9.044;2022-11-09T01:32:16;8.94;85.72
69084;SHT31;56185;48.526;9.044;2022-11-09T01:34:41;8.98;85.51
69084;SHT31;56185;48.526;9.044;2022-11-09T01:37:06;8.98;85.90
69084;SHT31;56185;48.526;9.044;2022-11-09T01:39:31;9.00;85.46
69084;SHT31;56185;48.526;9.044;2022-11-09T01:41:57;9.00;85.42
69084;SHT31;56185;48.526;9.044;2022-11-09T01:44:26;8.92;85.36
69084;SHT31;56185;48.526;9.044;2022-11-09T01:47:04;9.02;85.00
69084;SHT31;56185;48.526;9.044;2022-11-09T01:50:03;8.97;84.70
69084;SHT31;56185;48.526;9.044;2022-11-09T01:52:33;8.95;84.81
69084;SHT31;56185;48.526;9.044;2022-11-09T01:55:16;8.89;84.77
69084;SHT31;56185;48.526;9.044;2022-11-09T01:57:46;8.88;84.73
69084;SHT31;56185;48.526;9.044;2022-11-09T02:00:15;8.94;84.35
69084;SHT31;56185;48.526;9.044;2022-11-09T02:02:47;8.97;84.43
69084;SHT31;56185;48.526;9.044;2022-11-09T02:05:16;8.94;84.76
69084;SHT31;56185;48.526;9.044;2022-11-09T02:07:43;9.00;84.71
69084;SHT31;56185;48.526;9.044;2022-11-09T02:10:22;9.01;84.75
69084;SHT31;56185;48.526;9.044;2022-11-09T02:12:49;9.05;85.11
69084;SHT31;56185;48.526;9.044;2022-11-09T02:15:16;9.04;84.73
69084;SHT31;56185;48.526;9.044;2022-11-09T02:17:42;9.07;84.77
69084;SHT31;56185;48.526;9.044;2022-11-09T02:20:13;9.02;84.32
69084;SHT31;56185;48.526;9.044;2022-11-09T02:22:39;9.07;83.66
69084;SHT31;56185;48.526;9.044;2022-11-09T02:25:05;9.05;83.62
69084;SHT31;56185;48.526;9.044;2022-11-09T02:27:31;9.07;84.03
69084;SHT31;56185;48.526;9.044;2022-11-09T02:29:57;8.98;84.48
69084;SHT31;56185;48.526;9.044;2022-11-09T02:32:25;8.98;84.43
69084;SHT31;56185;48.526;9.044;2022-11-09T02:34:52;8.91;84.41
69084;SHT31;56185;48.526;9.044;2022-11-09T02:39:54;8.89;85.02
69084;SHT31;56185;48.526;9.044;2022-11-09T02:42:19;8.98;84.89
69084;SHT31;56185;48.526;9.044;2022-11-09T02:44:48;8.98;84.29
69084;SHT31;56185;48.526;9.044;2022-11-09T02:47:15;8.87;84.59
69084;SHT31;56185;48.526;9.044;2022-11-09T02:49:40;8.95;84.21
69084;SHT31;56185;48.526;9.044;2022-11-09T02:52:05;8.84;84.61
69084;SHT31;56185;48.526;9.044;2022-11-09T02:54:31;8.88;85.02
69084;SHT31;56185;48.526;9.044;2022-11-09T02:56:56;8.89;85.17
69084;SHT31;56185;48.526;9.044;2022-11-09T02:59:21;8.87;84.87
69084;SHT31;56185;48.526;9.044;2022-11-09T03:01:46;8.77;85.11
69084;SHT31;56185;48.526;9.044;2022-11-09T03:04:12;8.74;85.34
69084;SHT31;56185;48.526;9.044;2022-11-09T03:06:37;8.80;85.23
69084;SHT31;56185;48.526;9.044;2022-11-09T03:09:06;8.82;85.60
69084;SHT31;56185;48.526;9.044;2022-11-09T03:11:32;8.88;85.86
69084;SHT31;56185;48.526;9.044;2022-11-09T03:13:57;8.95;85.69
69084;SHT31;56185;48.526;9.044;2022-11-09T03:16:23;8.98;85.65
69084;SHT31;56185;48.526;9.044;2022-11-09T03:18:48;9.01;85.50
69084;SHT31;56185;48.526;9.044;2022-11-09T03:21:13;9.08;85.31
69084;SHT31;56185;48.526;9.044;2022-11-09T03:23:39;9.08;86.45
69084;SHT31;56185;48.526;9.044;2022-11-09T03:26:04;9.04;87.40
69084;SHT31;56185;48.526;9.044;2022-11-09T03:28:29;9.10;87.08
69084;SHT31;56185;48.526;9.044;2022-11-09T03:30:55;9.02;87.91
69084;SHT31;56185;48.526;9.044;2022-11-09T03:33:20;9.07;87.52
69084;SHT31;56185;48.526;9.044;2022-11-09T03:35:45;9.07;87.76
69084;SHT31;56185;48.526;9.044;2022-11-09T03:38:11;9.08;87.32
69084;SHT31;56185;48.526;9.044;2022-11-09T03:40:36;9.08;86.81
69084;SHT31;56185;48.526;9.044;2022-11-09T03:43:02;9.04;87.66
69084;SHT31;56185;48.526;9.044;2022-11-09T03:45:27;8.97;88.11
69084;SHT31;56185;48.526;9.044;2022-11-09T03:47:55;8.97;88.37
69084;SHT31;56185;48.526;9.044;2022-11-09T03:50:20;8.97;88.13
69084;SHT31;56185;48.526;9.044;2022-11-09T03:52:46;9.05;88.11
69084;SHT31;56185;48.526;9.044;2022-11-09T03:55:12;9.01;88.09
69084;SHT31;56185;48.526;9.044;2022-11-09T03:57:38;9.02;88.67
69084;SHT31;56185;48.526;9.044;2022-11-09T04:00:05;8.94;89.19
69084;SHT31;56185;48.526;9.044;2022-11-09T04:02:30;8.91;89.27
69084;SHT31;56185;48.526;9.044;2022-11-09T04:04:56;8.94;89.76
69084;SHT31;56185;48.526;9.044;2022-11-09T04:07:21;9.01;90.31
69084;SHT31;56185;48.526;9.044;2022-11-09T04:09:46;8.84;91.42
69084;SHT31;56185;48.526;9.044;2022-11-09T04:12:12;8.75;91.72
69084;SHT31;56185;48.526;9.044;2022-11-09T04:14:37;9.02;91.41
69084;SHT31;56185;48.526;9.044;2022-11-09T04:17:02;9.02;91.46
69084;SHT31;56185;48.526;9.044;2022-11-09T04:19:27;9.10;91.34
69084;SHT31;56185;48.526;9.044;2022-11-09T04:21:53;9.12;91.53
69084;SHT31;56185;48.526;9.044;2022-11-09T04:24:18;9.01;91.36
69084;SHT31;56185;48.526;9.044;2022-11-09T04:26:46;9.05;91.55
69084;SHT31;56185;48.526;9.044;2022-11-09T04:29:11;9.21;90.99
69084;SHT31;56185;48.526;9.044;2022-11-09T04:31:37;9.29;91.33
69084;SHT31;56185;48.526;9.044;2022-11-09T04:34:02;9.32;91.39
69084;SHT31;56185;48.526;9.044;2022-11-09T04:36:27;9.32;91.34
69084;SHT31;56185;48.526;9.044;2022-11-09T04:38:52;9.32;91.57
69084;SHT31;56185;48.526;9.044;2022-11-09T04:41:18;9.35;91.55
69084;SHT31;56185;48.526;9.044;2022-11-09T04:43:43;9.36;91.49
69084;SHT31;56185;48.526;9.044;2022-11-09T04:46:08;9.39;91.39
69084;SHT31;56185;48.526;9.044;2022-11-09T04:48:34;9.42;90.63
69084;SHT31;56185;48.526;9.044;2022-11-09T04:51:03;9.47;90.86
69084;SHT31;56185;48.526;9.044;2022-11-09T04:53:29;9.42;91.10
69084;SHT31;56185;48.526;9.044;2022-11-09T04:55:55;9.32;91.85
69084;SHT31;56185;48.526;9.044;2022-11-09T04:58:21;9.29;92.11
69084;SHT31;56185;48.526;9.044;2022-11-09T05:00:46;9.19;92.50
69084;SHT31;56185;48.526;9.044;2022-11-09T05:03:12;9.19;92.56
69084;SHT31;56185;48.526;9.044;2022-11-09T05:05:37;9.32;91.99
69084;SHT31;56185;48.526;9.044;2022-11-09T05:08:03;9.28;91.99
69084;SHT31;56185;48.526;9.044;2022-11-09T05:10:30;9.22;92.30
69084;SHT31;56185;48.526;9.044;2022-11-09T05:13:03;9.25;92.76
69084;SHT31;56185;48.526;9.044;2022-11-09T05:15:29;9.38;92.43
69084;SHT31;56185;48.526;9.044;2022-11-09T05:17:54;9.31;92.78
69084;SHT31;56185;48.526;9.044;2022-11-09T05:20:20;9.26;93.66
69084;SHT31;56185;48.526;9.044;2022-11-09T05:22:45;9.29;93.65
69084;SHT31;56185;48.526;9.044;2022-11-09T05:25:10;9.39;93.77
69084;SHT31;56185;48.526;9.044;2022-11-09T05:27:37;9.57;92.89
69084;SHT31;56185;48.526;9.044;2022-11-09T05:30:02;9.59;93.01
69084;SHT31;56185;48.526;9.044;2022-11-09T05:32:28;9.66;92.92
69084;SHT31;56185;48.526;9.044;2022-11-09T05:34:53;9.66;93.05
69084;SHT31;56185;48.526;9.044;2022-11-09T05:37:18;9.67;92.92
69084;SHT31;56185;48.526;9.044;2022-11-09T05:39:43;9.47;93.97
69084;SHT31;56185;48.526;9.044;2022-11-09T05:42:09;9.50;94.21
69084;SHT31;56185;48.526;9.044;2022-11-09T05:44:34;9.49;94.21
69084;SHT31;56185;48.526;9.044;2022-11-09T05:46:59;9.43;94.34
69084;SHT31;56185;48.526;9.044;2022-11-09T05:49:25;9.66;93.85
69084;SHT31;56185;48.526;9.044;2022-11-09T05:51:50;9.72;93.24
69084;SHT31;56185;48.526;9.044;2022-11-09T05:54:15;9.79;92.20
69084;SHT31;56185;48.526;9.044;2022-11-09T05:56:40;9.70;92.10
69084;SHT31;56185;48.526;9.044;2022-11-09T05:59:07;9.76;91.97
69084;SHT31;56185;48.526;9.044;2022-11-09T06:01:32;9.79;91.45
69084;SHT31;56185;48.526;9.044;2022-11-09T06:03:57;9.81;91.50
69084;SHT31;56185;48.526;9.044;2022-11-09T06:06:22;9.77;91.70
69084;SHT31;56185;48.526;9.044;2022-11-09T06:08:48;9.76;91.81
69084;SHT31;56185;48.526;9.044;2022-11-09T06:11:13;9.74;91.87
69084;SHT31;56185;48.526;9.044;2022-11-09T06:13:38;9.77;91.91
69084;SHT31;56185;48.526;9.044;2022-11-09T06:16:04;9.79;91.77
69084;SHT31;56185;48.526;9.044;2022-11-09T06:18:31;9.59;92.50
69084;SHT31;56185;48.526;9.044;2022-11-09T06:20:59;9.76;92.03
69084;SHT31;56185;48.526;9.044;2022-11-09T06:23:25;9.84;92.03
69084;SHT31;56185;48.526;9.044;2022-11-09T06:28:23;9.86;91.90
69084;SHT31;56185;48.526;9.044;2022-11-09T06:30:48;9.86;91.90
69084;SHT31;56185;48.526;9.044;2022-11-09T06:33:13;9.76;92.21
69084;SHT31;56185;48.526;9.044;2022-11-09T06:35:39;9.83;91.69
69084;SHT31;56185;48.526;9.044;2022-11-09T06:38:04;9.84;91.59
69084;SHT31;56185;48.526;9.044;2022-11-09T06:40:29;9.91;91.42
69084;SHT31;56185;48.526;9.044;2022-11-09T06:42:56;9.95;91.36
69084;SHT31;56185;48.526;9.044;2022-11-09T06:45:22;9.94;91.33
69084;SHT31;56185;48.526;9.044;2022-11-09T06:47:47;9.89;91.24
69084;SHT31;56185;48.526;9.044;2022-11-09T06:50:13;9.90;91.27
69084;SHT31;56185;48.526;9.044;2022-11-09T06:52:38;9.91;90.85
69084;SHT31;56185;48.526;9.044;2022-11-09T06:55:03;9.93;91.18
69084;SHT31;56185;48.526;9.044;2022-11-09T06:57:29;9.94;91.26
69084;SHT31;56185;48.526;9.044;2022-11-09T06:59:54;9.89;91.39
69084;SHT31;56185;48.526;9.044;2022-11-09T07:02:20;9.86;91.48
69084;SHT31;56185;48.526;9.044;2022-11-09T07:04:45;9.80;91.92
69084;SHT31;56185;48.526;9.044;2022-11-09T07:07:10;9.89;91.51
69084;SHT31;56185;48.526;9.044;2022-11-09T07:09:36;9.95;91.45
69084;SHT31;56185;48.526;9.044;2022-11-09T07:12:01;9.97;91.60
69084;SHT31;56185;48.526;9.044;2022-11-09T07:14:26;10.02;91.22
69084;SHT31;56185;48.526;9.044;2022-11-09T07:16:51;10.02;91.19
69084;SHT31;56185;48.526;9.044;2022-11-09T07:19:17;10.04;91.41
69084;SHT31;56185;48.526;9.044;2022-11-09T07:21:42;10.05;91.41
69084;SHT31;56185;48.526;9.044;2022-11-09T07:24:07;10.07;91.41
69084;SHT31;56185;48.526;9.044;2022-11-09T07:26:32;10.12;91.30
69084;SHT31;56185;48.526;9.044;2022-11-09T07:28:58;10.18;91.46
69084;SHT31;56185;48.526;9.044;2022-11-09T07:31:23;10.01;92.18
69084;SHT31;56185;48.526;9.044;2022-11-09T07:33:49;10.10;92.79
69084;SHT31;56185;48.526;9.044;2022-11-09T07:36:14;10.17;93.05
69084;SHT31;56185;48.526;9.044;2022-11-09T07:38:39;10.20;93.04
69084;SHT31;56185;48.526;9.044;2022-11-09T07:41:04;10.21;92.90
69084;SHT31;56185;48.526;9.044;2022-11-09T07:43:30;10.12;93.01
69084;SHT31;56185;48.526;9.044;2022-11-09T07:45:55;10.24;92.44
69084;SHT31;56185;48.526;9.044;2022-11-09T07:48:21;10.20;92.79
69084;SHT31;56185;48.526;9.044;2022-11-09T07:50:46;10.28;92.86
69084;SHT31;56185;48.526;9.044;2022-11-09T07:53:13;10.27;93.28
69084;SHT31;56185;48.526;9.044;2022-11-09T07:55:39;10.34;93.07
69084;SHT31;56185;48.526;9.044;2022-11-09T07:58:06;10.38;93.23
69084;SHT31;56185;48.526;9.044;2022-11-09T08:00:33;10.48;92.95
69084;SHT31;56185;48.526;9.044;2022-11-09T08:02:59;10.49;93.32
69084;SHT31;56185;48.526;9.044;2022-11-09T08:05:25;10.45;93.42
69084;SHT31;56185;48.526;9.044;2022-11-09T08:07:58;10.62;93.23
69084;SHT31;56185;48.526;9.044;2022-11-09T08:10:25;10.65;93.21
69084;SHT31;56185;48.526;9.044;2022-11-09T08:12:58;10.65;93.55
69084;SHT31;56185;48.526;9.044;2022-11-09T08:15:24;10.70;93.72
69084;SHT31;56185;48.526;9.044;2022-11-09T08:17:50;10.76;93.43
69084;SHT31;56185;48.526;9.044;2022-11-09T08:20:15;10.79;93.29
69084;SHT31;56185;48.526;9.044;2022-11-09T08:22:42;10.82;92.96
69084;SHT31;56185;48.526;9.044;2022-11-09T08:25:07;10.83;93.16
69084;SHT31;56185;48.526;9.044;2022-11-09T08:27:33;10.88;93.02
69084;SHT31;56185;48.526;9.044;2022-11-09T08:29:58;10.92;92.59
69084;SHT31;56185;48.526;9.044;2022-11-09T08:32:23;10.90;93.14
69084;SHT31;56185;48.526;9.044;2022-11-09T08:34:49;10.90;93.33
69084;SHT31;56185;48.526;9.044;2022-11-09T08:37:14;10.95;93.05
69084;SHT31;56185;48.526;9.044;2022-11-09T08:39:40;11.00;93.24
69084;SHT31;56185;48.526;9.044;2022-11-09T08:42:05;11.01;92.68
69084;SHT31;56185;48.526;9.044;2022-11-09T08:44:30;11.00;92.75
69084;SHT31;56185;48.526;9.044;2022-11-09T08:46:56;11.09;92.16
69084;SHT31;56185;48.526;9.044;2022-11-09T08:49:21;11.11;92.61
69084;SHT31;56185;48.526;9.044;2022-11-09T08:51:46;11.10;92.86
69084;SHT31;56185;48.526;9.044;2022-11-09T08:54:11;11.07;93.21
69084;SHT31;56185;48.526;9.044;2022-11-09T08:56:37;11.16;92.34
69084;SHT31;56185;48.526;9.044;2022-11-09T08:59:02;11.19;91.97
69084;SHT31;56185;48.526;9.044;2022-11-09T09:01:27;11.23;91.61
69084;SHT31;56185;48.526;9.044;2022-11-09T09:03:52;11.24;91.54
69084;SHT31;56185;48.526;9.044;2022-11-09T09:06:18;11.21;91.69
69084;SHT31;56185;48.526;9.044;2022-11-09T09:08:43;11.24;92.00
69084;SHT31;56185;48.526;9.044;2022-11-09T09:11:08;11.20;92.27
69084;SHT31;56185;48.526;9.044;2022-11-09T09:13:33;11.27;92.03
69084;SHT31;56185;48.526;9.044;2022-11-09T09:16:08;11.35;91.92
69084;SHT31;56185;48.526;9.044;2022-11-09T09:18:34;11.35;91.74
69084;SHT31;56185;48.526;9.044;2022-11-09T09:20:59;11.40;91.80
69084;SHT31;56185;48.526;9.044;2022-11-09T09:23:24;11.48;92.02
69084;SHT31;56185;48.526;9.044;2022-11-09T09:25:50;11.50;92.71
69084;SHT31;56185;48.526;9.044;2022-11-09T09:28:15;11.64;92.48
69084;SHT31;56185;48.526;9.044;2022-11-09T09:30:40;11.67;92.16
69084;SHT31;56185;48.526;9.044;2022-11-09T09:33:05;11.71;91.51
69084;SHT31;56185;48.526;9.044;2022-11-09T09:35:31;11.78;91.82
69084;SHT31;56185;48.526;9.044;2022-11-09T09:37:56;11.75;92.00
69084;SHT31;56185;48.526;9.044;2022-11-09T09:40:24;11.79;92.94
69084;SHT31;56185;48.526;9.044;2022-11-09T09:42:52;11.89;92.68
69084;SHT31;56185;48.526;9.044;2022-11-09T09:45:21;11.98;93.26
69084;SHT31;56185;48.526;9.044;2022-11-09T09:47:59;12.26;91.65
69084;SHT31;56185;48.526;9.044;2022-11-09T09:50:50;12.63;89.72
69084;SHT31;56185;48.526;9.044;2022-11-09T09:53:30;12.97;88.52
69084;SHT31;56185;48.526;9.044;2022-11-09T09:56:02;13.16;88.87
69084;SHT31;56185;48.526;9.044;2022-11-09T09:58:31;13.47;85.72
69084;SHT31;56185;48.526;9.044;2022-11-09T10:03:27;13.74;86.44
69084;SHT31;56185;48.526;9.044;2022-11-09T10:06:03;13.81;87.36
69084;SHT31;56185;48.526;9.044;2022-11-09T10:08:50;13.94;84.68
69084;SHT31;56185;48.526;9.044;2022-11-09T10:11:36;13.91;84.61
69084;SHT31;56185;48.526;9.044;2022-11-09T10:20:17;14.26;85.32
69084;SHT31;56185;48.526;9.044;2022-11-09T10:25:27;14.42;83.58
69084;SHT31;56185;48.526;9.044;2022-11-09T10:28:00;14.52;84.21
69084;SHT31;56185;48.526;9.044;2022-11-09T10:30:28;14.55;83.29
69084;SHT31;56185;48.526;9.044;2022-11-09T10:32:56;14.54;83.69
69084;SHT31;56185;48.526;9.044;2022-11-09T10:35:28;14.46;84.39
69084;SHT31;56185;48.526;9.044;2022-11-09T10:37:54;14.42;83.22
69084;SHT31;56185;48.526;9.044;2022-11-09T10:42:55;14.42;84.16
69084;SHT31;56185;48.526;9.044;2022-11-09T10:45:39;14.42;84.16
69084;SHT31;56185;48.526;9.044;2022-11-09T10:48:06;14.44;83.91
69084;SHT31;56185;48.526;9.044;2022-11-09T10:50:48;14.45;85.30
69084;SHT31;56185;48.526;9.044;2022-11-09T10:53:21;14.62;83.38
69084;SHT31;56185;48.526;9.044;2022-11-09T10:55:57;14.68;83.41
69084;SHT31;56185;48.526;9.044;2022-11-09T11:03:23;14.72;85.67
69084;SHT31;56185;48.526;9.044;2022-11-09T11:05:59;14.77;84.24
69084;SHT31;56185;48.526;9.044;2022-11-09T11:08:32;14.79;83.68
69084;SHT31;56185;48.526;9.044;2022-11-09T11:11:27;14.86;83.18
69084;SHT31;56185;48.526;9.044;2022-11-09T11:14:40;14.82;84.32
69084;SHT31;56185;48.526;9.044;2022-11-09T11:16:39;14.87;84.70
69084;SHT31;56185;48.526;9.044;2022-11-09T11:19:35;14.83;84.75
69084;SHT31;56185;48.526;9.044;2022-11-09T11:24:44;14.89;84.50
69084;SHT31;56185;48.526;9.044;2022-11-09T11:27:19;14.86;85.11
69084;SHT31;56185;48.526;9.044;2022-11-09T13:59:45;14.61;83.83
69084;SHT31;56185;48.526;9.044;2022-11-09T14:02:18;14.61;84.31
69084;SHT31;56185;48.526;9.044;2022-11-09T14:04:47;14.62;84.47
69084;SHT31;56185;48.526;9.044;2022-11-09T14:07:25;14.59;84.38
69084;SHT31;56185;48.526;9.044;2022-11-09T14:21:02;14.48;85.63
69084;SHT31;56185;48.526;9.044;2022-11-09T14:23:31;14.46;86.01
69084;SHT31;56185;48.526;9.044;2022-11-09T14:25:57;14.49;86.01
69084;SHT31;56185;48.526;9.044;2022-11-09T14:28:26;14.45;85.87
69084;SHT31;56185;48.526;9.044;2022-11-09T14:30:51;14.42;85.71
69084;SHT31;56185;48.526;9.044;2022-11-09T14:33:30;14.35;85.85
69084;SHT31;56185;48.526;9.044;2022-11-09T14:35:56;14.18;86.72
69084;SHT31;56185;48.526;9.044;2022-11-09T14:40:48;14.04;86.85
69084;SHT31;56185;48.526;9.044;2022-11-09T14:46:02;13.78;86.44
69084;SHT31;56185;48.526;9.044;2022-11-09T14:48:28;13.84;87.15
69084;SHT31;56185;48.526;9.044;2022-11-09T14:50:59;13.90;86.79
69084;SHT31;56185;48.526;9.044;2022-11-09T14:55:57;13.67;86.72
69084;SHT31;56185;48.526;9.044;2022-11-09T14:58:23;13.74;87.24
69084;SHT31;56185;48.526;9.044;2022-11-09T15:01:23;13.47;87.59
69084;SHT31;56185;48.526;9.044;2022-11-09T15:06:44;13.62;87.25
69084;SHT31;56185;48.526;9.044;2022-11-09T15:09:15;13.70;87.90
69084;SHT31;56185;48.526;9.044;2022-11-09T15:11:41;13.60;87.92
69084;SHT31;56185;48.526;9.044;2022-11-09T15:14:24;13.57;87.85
69084;SHT31;56185;48.526;9.044;2022-11-09T15:17:18;13.62;88.19
69084;SHT31;56185;48.526;9.044;2022-11-09T15:22:58;13.59;87.90
69084;SHT31;56185;48.526;9.044;2022-11-09T15:25:35;13.49;88.25
69084;SHT31;56185;48.526;9.044;2022-11-09T15:35:55;13.49;88.21
69084;SHT31;56185;48.526;9.044;2022-11-09T15:38:34;13.49;88.38
69084;SHT31;56185;48.526;9.044;2022-11-09T15:41:09;13.43;88.88
69084;SHT31;56185;48.526;9.044;2022-11-09T15:43:35;13.49;88.71
69084;SHT31;56185;48.526;9.044;2022-11-09T15:46:00;13.50;88.71
69084;SHT31;56185;48.526;9.044;2022-11-09T15:48:26;13.46;88.80
69084;SHT31;56185;48.526;9.044;2022-11-09T15:50:51;13.46;88.82
69084;SHT31;56185;48.526;9.044;2022-11-09T15:53:17;13.28;89.33
69084;SHT31;56185;48.526;9.044;2022-11-09T15:56:05;13.42;89.01
69084;SHT31;56185;48.526;9.044;2022-11-09T15:58:51;13.28;89.63
69084;SHT31;56185;48.526;9.044;2022-11-09T16:01:29;13.30;89.53
69084;SHT31;56185;48.526;9.044;2022-11-09T16:03:58;13.39;89.23
69084;SHT31;56185;48.526;9.044;2022-11-09T16:06:23;13.35;89.24
69084;SHT31;56185;48.526;9.044;2022-11-09T16:08:49;13.42;89.30
69084;SHT31;56185;48.526;9.044;2022-11-09T16:11:15;13.38;89.46
69084;SHT31;56185;48.526;9.044;2022-11-09T16:13:41;13.28;89.43
69084;SHT31;56185;48.526;9.044;2022-11-09T16:16:08;13.32;89.67
69084;SHT31;56185;48.526;9.044;2022-11-09T16:18:33;13.28;89.80
69084;SHT31;56185;48.526;9.044;2022-11-09T16:21:12;13.34;89.47
69084;SHT31;56185;48.526;9.044;2022-11-09T16:23:38;13.30;89.57
69084;SHT31;56185;48.526;9.044;2022-11-09T16:26:08;13.28;89.50
69084;SHT31;56185;48.526;9.044;2022-11-09T16:28:34;13.29;89.77
69084;SHT31;56185;48.526;9.044;2022-11-09T16:30:59;13.26;89.96
69084;SHT31;56185;48.526;9.044;2022-11-09T16:33:25;13.29;89.99
69084;SHT31;56185;48.526;9.044;2022-11-09T16:35:51;13.25;90.04
69084;SHT31;56185;48.526;9.044;2022-11-09T16:38:17;13.23;90.00
69084;SHT31;56185;48.526;9.044;2022-11-09T16:40:42;13.25;90.01
69084;SHT31;56185;48.526;9.044;2022-11-09T16:43:11;13.22;90.22
69084;SHT31;56185;48.526;9.044;2022-11-09T16:45:44;13.20;90.20
69084;SHT31;56185;48.526;9.044;2022-11-09T16:48:10;13.20;90.22
69084;SHT31;56185;48.526;9.044;2022-11-09T16:50:40;13.16;90.45
69084;SHT31;56185;48.526;9.044;2022-11-09T16:53:09;13.19;90.11
69084;SHT31;56185;48.526;9.044;2022-11-09T16:55:34;13.16;90.19
69084;SHT31;56185;48.526;9.044;2022-11-09T16:58:00;13.16;90.14
69084;SHT31;56185;48.526;9.044;2022-11-09T17:00:25;13.15;90.16
69084;SHT31;56185;48.526;9.044;2022-11-09T17:02:51;13.19;89.86
69084;SHT31;56185;48.526;9.044;2022-11-09T17:05:16;13.19;89.63
69084;SHT31;56185;48.526;9.044;2022-11-09T17:07:41;13.16;89.59
69084;SHT31;56185;48.526;9.044;2022-11-09T17:10:07;13.15;89.57
69084;SHT31;56185;48.526;9.044;2022-11-09T17:12:32;13.12;89.82
69084;SHT31;56185;48.526;9.044;2022-11-09T17:14:58;13.14;89.39
69084;SHT31;56185;48.526;9.044;2022-11-09T17:17:23;13.15;89.03
69084;SHT31;56185;48.526;9.044;2022-11-09T17:19:48;13.16;89.06
69084;SHT31;56185;48.526;9.044;2022-11-09T17:22:14;13.11;89.22
69084;SHT31;56185;48.526;9.044;2022-11-09T17:24:39;13.01;89.38
69084;SHT31;56185;48.526;9.044;2022-11-09T17:27:07;13.09;89.37
69084;SHT31;56185;48.526;9.044;2022-11-09T17:29:32;13.05;89.61
69084;SHT31;56185;48.526;9.044;2022-11-09T17:31:58;13.04;89.34
69084;SHT31;56185;48.526;9.044;2022-11-09T17:34:23;13.02;89.56
69084;SHT31;56185;48.526;9.044;2022-11-09T17:36:48;12.98;89.66
69084;SHT31;56185;48.526;9.044;2022-11-09T17:39:13;12.92;89.63
69084;SHT31;56185;48.526;9.044;2022-11-09T17:41:39;12.89;89.52
69084;SHT31;56185;48.526;9.044;2022-11-09T17:44:04;12.91;89.67
69084;SHT31;56185;48.526;9.044;2022-11-09T17:46:29;12.94;89.77
69084;SHT31;56185;48.526;9.044;2022-11-09T17:48:55;12.99;89.68
69084;SHT31;56185;48.526;9.044;2022-11-09T17:51:20;12.97;89.70
69084;SHT31;56185;48.526;9.044;2022-11-09T17:53:46;12.92;89.88
69084;SHT31;56185;48.526;9.044;2022-11-09T17:56:12;12.91;89.57
69084;SHT31;56185;48.526;9.044;2022-11-09T17:58:39;12.87;89.60
69084;SHT31;56185;48.526;9.044;2022-11-09T18:01:13;12.78;90.12
69084;SHT31;56185;48.526;9.044;2022-11-09T18:03:39;12.78;90.12
69084;SHT31;56185;48.526;9.044;2022-11-09T18:06:13;12.78;90.06
69084;SHT31;56185;48.526;9.044;2022-11-09T18:08:38;12.84;89.77
69084;SHT31;56185;48.526;9.044;2022-11-09T18:11:04;12.80;90.00
69084;SHT31;56185;48.526;9.044;2022-11-09T18:13:29;12.78;89.84
69084;SHT31;56185;48.526;9.044;2022-11-09T18:15:55;12.77;89.77
69084;SHT31;56185;48.526;9.044;2022-11-09T18:18:20;12.80;89.61
69084;SHT31;56185;48.526;9.044;2022-11-09T18:20:45;12.76;89.75
69084;SHT31;56185;48.526;9.044;2022-11-09T18:23:11;12.73;89.95
69084;SHT31;56185;48.526;9.044;2022-11-09T18:25:36;12.63;90.05
69084;SHT31;56185;48.526;9.044;2022-11-09T18:28:02;12.64;90.14
69084;SHT31;56185;48.526;9.044;2022-11-09T18:30:27;12.65;90.19
69084;SHT31;56185;48.526;9.044;2022-11-09T18:32:52;12.61;90.18
69084;SHT31;56185;48.526;9.044;2022-11-09T18:35:18;12.58;90.31
69084;SHT31;56185;48.526;9.044;2022-11-09T18:37:43;12.61;90.22
69084;SHT31;56185;48.526;9.044;2022-11-09T18:40:09;12.60;90.18
69084;SHT31;56185;48.526;9.044;2022-11-09T18:42:34;12.53;90.38
69084;SHT31;56185;48.526;9.044;2022-11-09T18:44:59;12.54;90.25
69084;SHT31;56185;48.526;9.044;2022-11-09T18:47:24;12.56;90.31
69084;SHT31;56185;48.526;9.044;2022-11-09T18:49:50;12.58;90.15
69084;SHT31;56185;48.526;9.044;2022-11-09T18:52:16;12.58;90.06
69084;SHT31;56185;48.526;9.044;2022-11-09T18:54:41;12.56;90.26
69084;SHT31;56185;48.526;9.044;2022-11-09T18:57:07;12.57;90.23
69084;SHT31;56185;48.526;9.044;2022-11-09T18:59:32;12.56;90.22
69084;SHT31;56185;48.526;9.044;2022-11-09T19:01:57;12.53;90.30
69084;SHT31;56185;48.526;9.044;2022-11-09T19:04:23;12.54;90.12
69084;SHT31;56185;48.526;9.044;2022-11-09T19:06:48;12.50;89.78
69084;SHT31;56185;48.526;9.044;2022-11-09T19:09:14;12.54;90.03